createdAt,value
2018-04-08T00:00:51.187Z,41.17
2018-04-08T00:03:20.703Z,52.43
2018-04-08T00:05:49.441Z,45.40
2018-04-08T00:08:18.248Z,51.43
2018-04-08T00:10:47.175Z,42.90
2018-04-08T00:13:15.910Z,43.67
2018-04-08T00:15:44.618Z,45.80
2018-04-08T00:18:13.540Z,50.63
2018-04-08T00:20:42.286Z,47.40
2018-04-08T00:23:10.974Z,51.93
2018-04-08T00:25:39.602Z,54.23
2018-04-08T00:28:08.531Z,54.47
2018-04-08T00:30:37.433Z,55.37
2018-04-08T00:33:06.268Z,54.87
2018-04-08T00:35:34.898Z,46.70
2018-04-08T00:38:03.713Z,48.33
2018-04-08T00:40:34.226Z,41.07
2018-04-08T00:43:03.064Z,40.43
2018-04-08T00:45:31.886Z,41.23
2018-04-08T00:48:01.853Z,48.00
2018-04-08T00:50:30.534Z,51.60
2018-04-08T00:52:59.581Z,53.23
2018-04-08T00:55:28.377Z,46.13
2018-04-08T00:57:56.870Z,47.63
2018-04-08T01:00:26.525Z,52.67
2018-04-08T01:02:55.047Z,44.53
2018-04-08T01:05:23.566Z,50.60
2018-04-08T01:07:51.989Z,52.07
2018-04-08T01:10:20.515Z,54.60
2018-04-08T01:12:49.030Z,47.70
2018-04-08T01:15:17.651Z,51.37
2018-04-08T01:17:46.274Z,45.17
2018-04-08T01:20:15.099Z,44.93
2018-04-08T01:22:43.930Z,41.77
2018-04-08T01:25:12.660Z,39.47
2018-04-08T01:27:41.344Z,35.63
2018-04-08T01:30:10.237Z,33.37
2018-04-08T01:32:38.921Z,39.57
2018-04-08T01:35:07.855Z,37.87
2018-04-08T01:37:36.751Z,38.83
2018-04-08T01:40:05.572Z,31.90
2018-04-08T01:42:34.214Z,38.20
2018-04-08T01:45:03.017Z,35.30
2018-04-08T01:47:31.661Z,34.13
2018-04-08T01:50:00.375Z,37.70
2018-04-08T01:52:29.181Z,38.70
2018-04-08T01:54:58.628Z,38.37
2018-04-08T01:57:27.331Z,34.77
2018-04-08T01:59:56.133Z,39.97
2018-04-08T02:02:24.771Z,33.37
2018-04-08T02:04:53.596Z,32.73
2018-04-08T02:07:22.323Z,38.57
2018-04-08T02:09:50.899Z,35.33
2018-04-08T02:12:19.561Z,29.47
2018-04-08T02:14:48.268Z,33.87
2018-04-08T02:17:17.003Z,32.33
2018-04-08T02:19:45.926Z,32.47
2018-04-08T02:22:14.550Z,33.80
2018-04-08T02:24:43.136Z,38.60
2018-04-08T02:27:11.995Z,38.00
2018-04-08T02:29:40.817Z,40.90
2018-04-08T02:32:09.464Z,38.77
2018-04-08T02:34:38.258Z,37.80
2018-04-08T02:37:07.582Z,32.50
2018-04-08T02:39:36.402Z,34.87
2018-04-08T02:42:05.225Z,34.60
2018-04-08T02:44:33.864Z,34.97
2018-04-08T02:47:02.680Z,34.97
2018-04-08T02:49:31.241Z,32.83
2018-04-08T02:51:59.845Z,34.27
2018-04-08T02:54:28.445Z,38.23
2018-04-08T02:56:57.057Z,38.30
2018-04-08T02:59:25.678Z,40.83
2018-04-08T03:01:54.185Z,37.93
2018-04-08T03:04:22.784Z,32.07
2018-04-08T03:06:51.320Z,40.20
2018-04-08T03:09:19.901Z,49.70
2018-04-08T03:11:48.480Z,38.15
2018-04-08T03:14:18.816Z,41.13
2018-04-08T03:16:47.402Z,37.57
2018-04-08T03:19:15.988Z,40.30
2018-04-08T03:21:44.531Z,40.37
2018-04-08T03:24:13.206Z,40.47
2018-04-08T03:26:41.787Z,39.73
2018-04-08T03:29:10.392Z,46.17
2018-04-08T03:31:38.964Z,39.47
2018-04-08T03:34:07.649Z,54.33
2018-04-08T03:36:36.231Z,39.88
2018-04-08T03:39:04.880Z,45.53
2018-04-08T03:41:33.483Z,46.73
2018-04-08T03:44:02.016Z,48.87
2018-04-08T03:46:30.590Z,41.93
2018-04-08T03:48:59.314Z,46.83
2018-04-08T03:51:28.134Z,44.87
2018-04-08T03:53:56.859Z,42.60
2018-04-08T03:56:25.475Z,45.37
2018-04-08T03:58:54.200Z,37.57
2018-04-08T04:01:22.926Z,42.93
2018-04-08T04:03:51.503Z,43.63
2018-04-08T04:06:20.114Z,48.00
2018-04-08T04:08:49.695Z,45.77
2018-04-08T04:11:18.320Z,45.07
2018-04-08T04:13:47.030Z,40.60
2018-04-08T04:16:15.589Z,38.83
2018-04-08T04:18:55.828Z,38.42
2018-04-08T04:21:36.179Z,39.00
2018-04-08T04:24:16.548Z,40.87
2018-04-08T04:26:45.216Z,37.57
2018-04-08T04:29:13.890Z,38.20
2018-04-08T04:31:42.506Z,37.90
2018-04-08T04:34:11.089Z,38.73
2018-04-08T04:36:39.655Z,36.57
2018-04-08T04:39:08.291Z,34.00
2018-04-08T04:41:37.595Z,37.43
2018-04-08T04:44:06.164Z,38.17
2018-04-08T04:46:34.701Z,31.57
2018-04-08T04:49:03.417Z,32.37
2018-04-08T04:51:31.967Z,32.97
2018-04-08T04:54:00.702Z,32.70
2018-04-08T04:56:29.369Z,27.97
2018-04-08T04:58:57.962Z,30.87
2018-04-08T05:01:26.578Z,25.90
2018-04-08T05:03:55.189Z,27.37
2018-04-08T05:06:23.775Z,27.73
2018-04-08T05:08:52.436Z,27.70
2018-04-08T05:11:20.958Z,24.27
2018-04-08T05:13:50.077Z,38.47
2018-04-08T05:16:18.703Z,24.50
2018-04-08T05:18:47.289Z,22.47
2018-04-08T05:21:16.040Z,23.10
2018-04-08T05:23:44.672Z,26.10
2018-04-08T05:26:13.282Z,26.37
2018-04-08T05:28:41.855Z,25.40
2018-04-08T05:31:10.411Z,31.47
2018-04-08T05:33:38.951Z,24.93
2018-04-08T05:36:07.566Z,24.97
2018-04-08T05:38:36.159Z,24.50
2018-04-08T05:41:04.742Z,21.13
2018-04-08T05:43:33.292Z,19.53
2018-04-08T05:46:01.866Z,24.80
2018-04-08T05:48:30.545Z,28.80
2018-04-08T05:50:59.267Z,24.67
2018-04-08T05:53:27.929Z,23.53
2018-04-08T05:55:56.499Z,23.17
2018-04-08T05:58:25.062Z,23.37
2018-04-08T06:00:53.683Z,21.77
2018-04-08T06:03:22.311Z,21.93
2018-04-08T06:05:51.026Z,25.60
2018-04-08T06:08:19.646Z,26.93
2018-04-08T06:10:48.269Z,21.57
2018-04-08T06:13:16.967Z,23.73
2018-04-08T06:15:45.507Z,23.13
2018-04-08T06:18:14.333Z,20.17
2018-04-08T06:20:42.952Z,27.53
2018-04-08T06:23:11.485Z,21.47
2018-04-08T06:25:40.099Z,15.40
2018-04-08T06:28:08.822Z,17.80
2018-04-08T06:30:37.641Z,18.17
2018-04-08T06:33:06.201Z,21.03
2018-04-08T06:35:35.186Z,18.23
2018-04-08T06:38:03.910Z,18.13
2018-04-08T06:40:32.534Z,18.17
2018-04-08T06:43:01.259Z,17.23
2018-04-08T06:45:29.792Z,19.27
2018-04-08T06:47:58.433Z,19.20
2018-04-08T06:50:27.119Z,19.73
2018-04-08T06:52:55.741Z,16.93
2018-04-08T06:55:24.358Z,22.47
2018-04-08T06:57:53.079Z,20.70
2018-04-08T07:00:21.912Z,15.57
2018-04-08T07:02:50.534Z,13.47
2018-04-08T07:05:19.142Z,18.93
2018-04-08T07:07:47.738Z,23.97
2018-04-08T07:10:16.363Z,19.17
2018-04-08T07:12:45.011Z,22.20
2018-04-08T07:15:13.628Z,20.97
2018-04-08T07:17:42.177Z,22.13
2018-04-08T07:20:10.822Z,18.93
2018-04-08T07:22:39.352Z,21.00
2018-04-08T07:25:07.966Z,20.63
2018-04-08T07:27:36.599Z,18.70
2018-04-08T07:30:05.987Z,22.10
2018-04-08T07:32:34.513Z,19.07
2018-04-08T07:35:03.137Z,19.63
2018-04-08T07:37:32.763Z,19.23
2018-04-08T07:40:01.322Z,16.77
2018-04-08T07:42:29.978Z,16.17
2018-04-08T07:44:58.517Z,16.10
2018-04-08T07:47:27.119Z,18.97
2018-04-08T07:49:55.754Z,15.27
2018-04-08T07:52:24.299Z,17.47
2018-04-08T07:54:52.848Z,18.87
2018-04-08T07:57:21.362Z,21.80
2018-04-08T07:59:50.033Z,26.63
2018-04-08T08:02:18.751Z,20.33
2018-04-08T08:04:47.282Z,19.03
2018-04-08T08:07:15.896Z,20.47
2018-04-08T08:09:44.464Z,21.83
2018-04-08T08:12:14.032Z,21.10
2018-04-08T08:14:42.656Z,22.43
2018-04-08T08:17:11.222Z,24.37
2018-04-08T08:19:39.918Z,20.60
2018-04-08T08:22:11.155Z,24.90
2018-04-08T08:24:39.850Z,21.67
2018-04-08T08:27:08.471Z,26.27
2018-04-08T08:29:36.988Z,23.33
2018-04-08T08:32:05.613Z,23.97
2018-04-08T08:34:34.236Z,19.37
2018-04-08T08:37:02.856Z,19.50
2018-04-08T08:39:31.380Z,24.47
2018-04-08T08:42:00.038Z,19.80
2018-04-08T08:44:28.575Z,18.53
2018-04-08T08:46:57.153Z,19.73
2018-04-08T08:49:26.418Z,18.33
2018-04-08T08:51:55.129Z,14.43
2018-04-08T08:54:23.662Z,13.63
2018-04-08T08:56:52.230Z,12.03
2018-04-08T08:59:20.803Z,13.83
2018-04-08T09:01:49.328Z,14.23
2018-04-08T09:04:17.883Z,12.83
2018-04-08T09:06:46.628Z,13.80
2018-04-08T09:09:15.249Z,15.80
2018-04-08T09:11:43.818Z,21.00
2018-04-08T09:14:12.373Z,16.63
2018-04-08T09:16:41.172Z,14.17
2018-04-08T09:22:27.016Z,10.93
2018-04-08T09:24:56.524Z,10.47
2018-04-08T09:27:25.261Z,11.33
2018-04-08T09:29:53.955Z,16.07
2018-04-08T09:32:22.532Z,11.17
2018-04-08T09:34:51.160Z,8.90
2018-04-08T09:37:19.714Z,8.60
2018-04-08T09:39:48.274Z,12.97
2018-04-08T09:42:16.868Z,9.13
2018-04-08T09:44:45.453Z,12.30
2018-04-08T09:47:13.969Z,9.87
2018-04-08T09:49:42.513Z,8.27
2018-04-08T09:52:11.047Z,11.23
2018-04-08T09:54:39.598Z,9.40
2018-04-08T09:57:08.992Z,10.93
2018-04-08T09:59:37.592Z,10.07
2018-04-08T10:02:08.518Z,8.83
2018-04-08T10:04:37.106Z,7.77
2018-04-08T10:07:05.716Z,6.93
2018-04-08T10:09:34.263Z,8.77
2018-04-08T10:12:03.646Z,8.80
2018-04-08T10:14:33.000Z,8.93
2018-04-08T10:17:02.542Z,10.67
2018-04-08T10:19:31.138Z,10.93
2018-04-08T10:21:59.707Z,12.30
2018-04-08T10:24:28.391Z,8.40
2018-04-08T10:26:57.101Z,11.53
2018-04-08T10:29:25.746Z,14.10
2018-04-08T10:31:55.043Z,8.07
2018-04-08T10:34:23.543Z,8.53
2018-04-08T10:36:52.186Z,9.50
2018-04-08T10:39:20.811Z,6.97
2018-04-08T10:41:49.341Z,10.30
2018-04-08T10:44:17.917Z,9.37
2018-04-08T10:46:46.669Z,13.80
2018-04-08T10:49:15.193Z,8.07
2018-04-08T10:51:44.023Z,8.60
2018-04-08T10:54:12.539Z,9.00
2018-04-08T10:56:41.118Z,10.43
2018-04-08T10:59:09.627Z,7.93
2018-04-08T11:01:38.212Z,10.70
2018-04-08T11:04:06.818Z,11.10
2018-04-08T11:06:35.366Z,10.90
2018-04-08T11:09:04.053Z,9.77
2018-04-08T11:11:32.637Z,9.63
2018-04-08T11:14:01.244Z,8.97
2018-04-08T11:16:29.806Z,8.80
2018-04-08T11:18:59.140Z,8.80
2018-04-08T11:21:27.871Z,7.13
2018-04-08T11:23:56.498Z,4.23
2018-04-08T11:26:25.120Z,8.03
2018-04-08T11:28:53.682Z,5.53
2018-04-08T11:31:22.269Z,8.60
2018-04-08T11:33:50.886Z,7.43
2018-04-08T11:36:19.446Z,5.67
2018-04-08T11:38:48.224Z,5.60
2018-04-08T11:41:16.796Z,6.03
2018-04-08T11:43:45.634Z,8.50
2018-04-08T11:46:14.387Z,7.87
2018-04-08T11:48:42.895Z,5.57
2018-04-08T11:51:11.442Z,6.70
2018-04-08T11:53:40.059Z,6.93
2018-04-08T11:56:08.673Z,4.07
2018-04-08T11:58:37.496Z,7.27
2018-04-08T12:01:06.072Z,5.17
2018-04-08T12:03:34.752Z,5.97
2018-04-08T12:06:03.368Z,6.17
2018-04-08T12:08:31.942Z,7.13
2018-04-08T12:11:00.551Z,6.23
2018-04-08T12:13:29.241Z,5.40
2018-04-08T12:15:57.852Z,8.40
2018-04-08T12:18:26.440Z,7.23
2018-04-08T12:20:55.192Z,5.63
2018-04-08T12:23:23.773Z,6.00
2018-04-08T12:25:52.404Z,4.20
2018-04-08T12:28:21.054Z,5.77
2018-04-08T12:30:49.648Z,5.97
2018-04-08T12:33:18.297Z,8.27
2018-04-08T12:35:46.919Z,7.37
2018-04-08T12:38:15.900Z,4.13
2018-04-08T12:40:44.509Z,5.63
2018-04-08T12:43:13.087Z,4.67
2018-04-08T12:45:41.806Z,7.83
2018-04-08T12:48:10.334Z,5.47
2018-04-08T12:50:38.911Z,3.90
2018-04-08T12:53:07.531Z,5.47
2018-04-08T12:55:36.045Z,4.23
2018-04-08T12:58:04.714Z,3.97
2018-04-08T13:00:33.380Z,5.93
2018-04-08T13:03:01.981Z,9.77
2018-04-08T13:05:30.492Z,7.07
2018-04-08T13:07:59.054Z,5.33
2018-04-08T13:10:27.665Z,6.43
2018-04-08T13:12:56.940Z,5.83
2018-04-08T13:15:25.535Z,7.77
2018-04-08T13:17:54.176Z,7.33
2018-04-08T13:20:22.757Z,4.57
2018-04-08T13:22:51.358Z,7.33
2018-04-08T13:25:19.899Z,3.43
2018-04-08T13:27:48.520Z,10.13
2018-04-08T13:30:17.128Z,4.93
2018-04-08T13:32:45.855Z,4.20
2018-04-08T13:35:14.415Z,3.87
2018-04-08T13:37:42.983Z,5.20
2018-04-08T13:40:11.523Z,4.57
2018-04-08T13:42:40.143Z,7.07
2018-04-08T13:45:08.790Z,6.73
2018-04-08T13:47:37.305Z,5.37
2018-04-08T13:50:05.971Z,5.47
2018-04-08T13:52:35.124Z,4.63
2018-04-08T13:55:03.808Z,4.27
2018-04-08T13:57:32.472Z,4.70
2018-04-08T14:00:01.087Z,6.07
2018-04-08T14:02:29.657Z,6.70
2018-04-08T14:04:58.218Z,4.10
2018-04-08T14:07:26.729Z,4.10
2018-04-08T14:09:55.261Z,7.23
2018-04-08T14:12:23.910Z,5.43
2018-04-08T14:14:52.590Z,4.47
2018-04-08T14:17:21.205Z,5.90
2018-04-08T14:19:49.714Z,4.53
2018-04-08T14:22:18.258Z,6.20
2018-04-08T14:24:46.756Z,9.27
2018-04-08T14:27:15.336Z,7.40
2018-04-08T14:29:43.965Z,3.70
2018-04-08T14:32:12.673Z,6.20
2018-04-08T14:34:41.237Z,8.03
2018-04-08T14:37:09.855Z,7.40
2018-04-08T14:39:38.355Z,4.03
2018-04-08T14:42:06.931Z,3.87
2018-04-08T14:44:35.579Z,5.10
2018-04-08T14:47:04.315Z,8.37
2018-04-08T14:49:54.397Z,4.23
2018-04-08T14:52:23.119Z,7.80
2018-04-08T14:54:51.809Z,5.53
2018-04-08T14:57:20.620Z,6.27
2018-04-08T14:59:49.370Z,5.27
2018-04-08T15:02:18.141Z,6.07
2018-04-08T15:04:46.847Z,4.13
2018-04-08T15:07:15.652Z,6.17
2018-04-08T15:09:44.373Z,12.03
2018-04-08T15:12:13.178Z,4.73
2018-04-08T15:14:41.916Z,4.50
2018-04-08T15:17:10.739Z,5.17
2018-04-08T15:19:39.429Z,4.87
2018-04-08T15:22:08.183Z,4.67
2018-04-08T15:24:36.741Z,4.53
2018-04-08T15:27:05.525Z,11.10
2018-04-08T15:29:34.250Z,6.00
2018-04-08T15:32:02.870Z,6.63
2018-04-08T15:34:31.590Z,6.57
2018-04-08T15:37:01.017Z,6.40
2018-04-08T15:39:29.738Z,4.73
2018-04-08T15:41:58.482Z,10.77
2018-04-08T15:44:27.180Z,5.70
2018-04-08T15:46:55.904Z,7.40
2018-04-08T15:49:24.728Z,8.93
2018-04-08T15:51:53.448Z,3.33
2018-04-08T15:54:22.068Z,6.07
2018-04-08T15:56:50.791Z,7.73
2018-04-08T15:59:19.463Z,10.20
2018-04-08T16:01:48.237Z,5.63
2018-04-08T16:04:16.936Z,7.83
2018-04-08T16:06:45.677Z,7.83
2018-04-08T16:09:14.327Z,6.23
2018-04-08T16:11:43.121Z,10.80
2018-04-08T16:14:13.509Z,6.73
2018-04-08T16:16:42.181Z,6.73
2018-04-08T16:19:10.892Z,9.53
2018-04-08T16:21:39.512Z,6.97
2018-04-08T16:24:08.237Z,3.10
2018-04-08T16:26:37.768Z,8.73
2018-04-08T16:29:06.581Z,7.90
2018-04-08T16:31:35.211Z,9.20
2018-04-08T16:34:03.932Z,8.67
2018-04-08T16:36:34.190Z,15.53
2018-04-08T16:39:02.902Z,17.60
2018-04-08T16:41:31.695Z,13.20
2018-04-08T16:44:00.419Z,13.23
2018-04-08T16:46:29.053Z,16.33
2018-04-08T16:48:57.864Z,13.80
2018-04-08T16:51:26.584Z,8.97
2018-04-08T16:53:55.215Z,10.93
2018-04-08T16:56:23.837Z,12.03
2018-04-08T16:58:52.587Z,13.47
2018-04-08T17:01:21.374Z,16.93
2018-04-08T17:03:50.093Z,7.83
2018-04-08T17:06:18.817Z,6.03
2018-04-08T17:08:48.039Z,7.60
2018-04-08T17:11:16.676Z,9.30
2018-04-08T17:13:45.409Z,8.97
2018-04-08T17:16:14.205Z,7.70
2018-04-08T17:18:42.830Z,6.93
2018-04-08T17:21:11.648Z,13.67
2018-04-08T17:23:40.370Z,7.37
2018-04-08T17:26:09.292Z,11.87
2018-04-08T17:28:38.030Z,13.07
2018-04-08T17:31:06.646Z,12.73
2018-04-08T17:33:35.461Z,9.30
2018-04-08T17:36:04.079Z,10.57
2018-04-08T17:38:32.882Z,16.77
2018-04-08T17:41:01.523Z,11.57
2018-04-08T17:43:30.347Z,10.63
2018-04-08T17:45:59.668Z,11.60
2018-04-08T17:48:28.306Z,8.33
2018-04-08T17:50:56.990Z,11.23
2018-04-08T17:53:25.710Z,13.13
2018-04-08T17:55:54.356Z,13.47
2018-04-08T17:58:23.078Z,23.40
2018-04-08T18:00:51.812Z,16.00
2018-04-08T18:03:20.625Z,22.43
2018-04-08T18:05:49.283Z,23.37
2018-04-08T18:08:18.070Z,19.93
2018-04-08T18:10:46.754Z,24.97
2018-04-08T18:13:15.427Z,30.47
2018-04-08T18:15:44.132Z,28.43
2018-04-08T18:18:12.755Z,32.07
2018-04-08T18:20:41.578Z,18.83
2018-04-08T18:23:11.000Z,24.90
2018-04-08T18:25:39.722Z,23.20
2018-04-08T18:28:08.342Z,17.23
2018-04-08T18:30:36.985Z,20.93
2018-04-08T18:33:05.688Z,17.60
2018-04-08T18:35:34.309Z,12.83
2018-04-08T18:38:02.885Z,14.27
2018-04-08T18:40:31.651Z,15.43
2018-04-08T18:43:00.446Z,10.40
2018-04-08T18:45:29.236Z,21.47
2018-04-08T18:47:57.824Z,29.17
2018-04-08T18:50:26.640Z,22.30
2018-04-08T18:52:55.362Z,17.60
2018-04-08T18:55:24.083Z,18.70
2018-04-08T18:57:52.681Z,23.87
2018-04-08T19:00:21.327Z,20.60
2018-04-08T19:02:50.049Z,26.27
2018-04-08T19:05:18.685Z,19.37
2018-04-08T19:07:47.389Z,25.23
2018-04-08T19:10:16.213Z,20.27
2018-04-08T19:12:44.906Z,21.70
2018-04-08T19:15:21.288Z,18.57
2018-04-08T19:17:55.426Z,20.97
2018-04-08T19:20:24.146Z,19.00
2018-04-08T19:22:52.770Z,23.13
2018-04-08T19:25:21.401Z,21.83
2018-04-08T19:27:50.031Z,27.17
2018-04-08T19:30:21.548Z,30.27
2018-04-08T19:32:50.261Z,22.73
2018-04-08T19:35:18.803Z,27.50
2018-04-08T19:37:48.213Z,31.47
2018-04-08T19:40:16.933Z,26.83
2018-04-08T19:42:45.753Z,27.23
2018-04-08T19:45:14.476Z,26.90
2018-04-08T19:47:43.121Z,33.00
2018-04-08T19:50:12.020Z,28.33
2018-04-08T19:52:40.762Z,21.50
2018-04-08T19:55:09.481Z,18.93
2018-04-08T19:57:38.120Z,22.23
2018-04-08T20:00:06.870Z,15.60
2018-04-08T20:02:35.435Z,14.70
2018-04-08T20:05:04.252Z,22.57
2018-04-08T20:07:32.975Z,22.97
2018-04-08T20:10:01.592Z,18.03
2018-04-08T20:12:30.419Z,22.70
2018-04-08T20:14:59.222Z,24.97
2018-04-08T20:17:27.867Z,24.27
2018-04-08T20:19:56.780Z,23.30
2018-04-08T20:22:25.505Z,24.93
2018-04-08T20:24:54.228Z,17.37
2018-04-08T20:27:22.849Z,23.40
2018-04-08T20:29:51.574Z,25.43
2018-04-08T20:32:20.293Z,26.83
2018-04-08T20:34:49.014Z,24.60
2018-04-08T20:37:17.634Z,29.33
2018-04-08T20:39:46.263Z,28.03
2018-04-08T20:42:14.989Z,24.70
2018-04-08T20:44:43.832Z,27.30
2018-04-08T20:47:12.424Z,25.20
2018-04-08T20:49:41.155Z,22.90
2018-04-08T20:52:09.783Z,27.43
2018-04-08T20:54:38.498Z,23.87
2018-04-08T20:57:07.121Z,23.80
2018-04-08T20:59:35.930Z,30.57
2018-04-08T21:02:04.652Z,26.57
2018-04-08T21:04:34.079Z,30.53
2018-04-08T21:07:02.774Z,20.80
2018-04-08T21:09:31.522Z,21.57
2018-04-08T21:12:00.243Z,18.23
2018-04-08T21:14:28.923Z,14.93
2018-04-08T21:16:57.566Z,18.23
2018-04-08T21:19:26.310Z,21.50
2018-04-08T21:21:55.132Z,17.43
2018-04-08T21:24:23.859Z,14.67
2018-04-08T21:26:52.674Z,19.13
2018-04-08T21:29:21.307Z,21.10
2018-04-08T21:31:50.020Z,23.17
2018-04-08T21:34:18.951Z,21.30
2018-04-08T21:36:47.762Z,18.67
2018-04-08T21:39:16.398Z,18.43
2018-04-08T21:41:45.105Z,16.13
2018-04-08T21:44:13.825Z,17.43
2018-04-08T21:46:42.551Z,21.23
2018-04-08T21:49:11.337Z,20.33
2018-04-08T21:51:40.913Z,20.50
2018-04-08T21:54:11.625Z,21.17
2018-04-08T21:56:40.860Z,22.67
2018-04-08T21:59:10.308Z,21.70
2018-04-08T22:01:39.096Z,18.67
2018-04-08T22:04:07.816Z,17.57
2018-04-08T22:06:36.538Z,22.77
2018-04-08T22:09:05.262Z,20.50
2018-04-08T22:14:07.679Z,28.40
2018-04-08T22:16:36.419Z,31.37
2018-04-08T22:19:05.769Z,24.73
2018-04-08T22:21:34.402Z,26.57
2018-04-08T22:24:03.213Z,22.03
2018-04-08T22:26:32.112Z,25.67
2018-04-08T22:29:00.679Z,25.27
2018-04-08T22:31:29.343Z,23.10
2018-04-08T22:33:58.007Z,20.73
2018-04-08T22:36:26.922Z,20.80
2018-04-08T22:38:55.645Z,20.17
2018-04-08T22:41:24.335Z,21.23
2018-04-08T22:43:53.007Z,25.80
2018-04-08T22:46:21.610Z,24.03
2018-04-08T22:48:50.330Z,24.23
2018-04-08T22:51:19.051Z,22.63
2018-04-08T22:53:47.775Z,25.80
2018-04-08T22:56:16.495Z,16.10
2018-04-08T22:58:45.204Z,25.83
2018-04-08T23:01:13.940Z,20.27
2018-04-08T23:03:43.437Z,15.90
2018-04-08T23:06:12.136Z,20.17
2018-04-08T23:08:41.442Z,14.20
2018-04-08T23:11:10.231Z,20.77
2018-04-08T23:13:39.056Z,16.33
2018-04-08T23:16:07.775Z,19.77
2018-04-08T23:18:36.569Z,18.63
2018-04-08T23:21:05.323Z,19.80
2018-04-08T23:23:34.055Z,24.10
2018-04-08T23:26:02.764Z,21.03
2018-04-08T23:28:31.490Z,22.30
2018-04-08T23:31:00.208Z,18.07
2018-04-08T23:33:28.935Z,19.73
2018-04-08T23:35:57.753Z,21.83
2018-04-08T23:38:26.475Z,21.30
2018-04-08T23:40:55.195Z,19.60
2018-04-08T23:43:23.922Z,20.63
2018-04-08T23:45:53.246Z,20.80
2018-04-08T23:48:21.940Z,16.40
2018-04-08T23:50:50.695Z,19.37
2018-04-08T23:53:19.407Z,25.37
2018-04-08T23:55:48.042Z,16.53
2018-04-08T23:58:16.830Z,20.07
